Eider — V2KA — position and weather

sailwx.info

Track history (hours):
 
Tides and Currents Weather Stations Pressure Air Temp Water Temp Dewpoint Dewpoint Depression Visibility Wind Speed Wind Dir Waves Ship Positions

Eider

Last reported at 2017-Sep-22 01:56 UTC. Time now 2017-Sep-23 14:50 UTC.
Position N 55°19' E 014°23'.

Length 88 m; draft 4.4 m.

Type: Cargo ship. MMSI: 304469000.

Date/timePositionNaut miles runAvg speedWind from/ knotsBaromVisibWave heightAir tempDewpointWater temp
2017-Sep-22 01:56N 55°19' E 014°23'5 9.9
2017-Sep-22 01:25N 55°23' E 014°29'4 9.8
2017-Sep-22 01:00N 55°26' E 014°33'21 9.7
2017-Sep-21 22:51N 55°37' E 015°05'4 9.7
2017-Sep-21 22:27N 55°38' E 015°11'4 9.8
2017-Sep-21 22:00N 55°41' E 015°17'5 9.8
2017-Sep-21 21:30N 55°43' E 015°25'510.0
2017-Sep-21 21:00N 55°46' E 015°33'510.3
2017-Sep-21 20:30N 55°48' E 015°40'510.3
2017-Sep-21 20:00N 55°51' E 015°48'510.1
2017-Sep-21 19:30N 55°54' E 015°56'5 9.8
2017-Sep-21 19:00N 55°56' E 016°04'510.0
2017-Sep-21 18:30N 55°58' E 016°12'510.1
2017-Sep-21 18:00N 56°00' E 016°20'510.7
2017-Sep-21 17:30N 56°03' E 016°28'510.6
2017-Sep-21 17:00N 56°06' E 016°36'29510.3
2017-Sep-20 12:22N 59°35' E 023°05'410.5
2017-Sep-20 12:00N 59°36' E 023°12'510.1
2017-Sep-20 11:30N 59°38' E 023°22'510.2
2017-Sep-20 11:00N 59°39' E 023°32'510.0
2017-Sep-20 10:30N 59°41' E 023°41'510.0
2017-Sep-20 10:00N 59°42' E 023°51'1410.2
2017-Sep-20 08:37N 59°46' E 024°18'110.2
2017-Sep-20 08:30N 59°46' E 024°20'510.1
2017-Sep-20 08:00N 59°47' E 024°30'5 9.8
2017-Sep-20 07:30N 59°48' E 024°39'5 9.0
2017-Sep-20 07:00N 59°49' E 024°48'5 9.0
2017-Sep-20 06:30N 59°50' E 024°57'40 9.0
2017-Sep-20 02:02N 60°04' E 026°12'0 8.6
2017-Sep-20 02:00N 60°05' E 026°12'5 9.0
2017-Sep-20 01:30N 60°08' E 026°18'4 8.9
2017-Sep-20 01:00N 60°12' E 026°23'4 8.8
2017-Sep-20 00:30N 60°15' E 026°28'510.1
2017-Sep-20 00:00N 60°19' E 026°35'510.0
2017-Sep-19 23:30N 60°22' E 026°43'5 9.8
2017-Sep-19 23:00N 60°22' E 026°53'5 9.9
2017-Sep-19 22:30N 60°21' E 027°03'5 9.3
2017-Sep-19 22:00N 60°25' E 027°09'5 9.7
2017-Sep-19 21:30N 60°30' E 027°09'2 0.1
2017-Sep-19 05:55N 60°32' E 027°10'3 6.4
2017-Sep-19 05:30N 60°29' E 027°08'5 9.5
2017-Sep-19 05:00N 60°24' E 027°08'5 9.0
2017-Sep-19 04:30N 60°21' E 027°02'510.2
2017-Sep-19 04:00N 60°22' E 026°52'5 9.7
2017-Sep-19 03:30N 60°22' E 026°42'5 9.6
2017-Sep-19 03:00N 60°19' E 026°35'5 9.6
2017-Sep-19 02:30N 60°16' E 026°27'4 7.8
2017-Sep-19 02:00N 60°12' E 026°23'4 7.7
2017-Sep-19 01:30N 60°09' E 026°20'4 7.8
2017-Sep-19 01:00N 60°05' E 026°16'42 7.2
2017-Sep-18 19:12N 59°47' E 024°60'1 7.3
2017-Sep-18 19:00N 59°47' E 024°57'4 7.8
2017-Sep-18 18:30N 59°46' E 024°50'4 7.7
2017-Sep-18 18:00N 59°45' E 024°42'4 7.8
2017-Sep-18 17:30N 59°44' E 024°35'4 7.9
2017-Sep-18 17:00N 59°43' E 024°27'4 7.9
2017-Sep-18 16:30N 59°42' E 024°19'14 7.9
2017-Sep-18 14:43N 59°38' E 023°53'7 7.7
2017-Sep-18 13:46N 59°36' E 023°39'2 7.9
2017-Sep-18 13:30N 59°35' E 023°35'4 8.0
2017-Sep-18 13:00N 59°34' E 023°27'299 8.3
2017-Sep-17 00:57N 55°09' E 019°14'4 8.8
2017-Sep-17 00:30N 55°05' E 019°11'4 8.9
2017-Sep-17 00:00N 55°01' E 019°08'4 8.9
2017-Sep-16 23:30N 54°57' E 019°06'5 9.0
2017-Sep-16 22:59N 54°52' E 019°03'4 9.0
2017-Sep-16 22:30N 54°48' E 019°01'4 9.0
2017-Sep-16 22:00N 54°44' E 018°59'4 8.4
2017-Sep-16 21:31N 54°40' E 018°57'4 8.7
2017-Sep-16 21:00N 54°36' E 018°54'5 9.2
2017-Sep-16 20:30N 54°32' E 018°49'4 8.9
2017-Sep-16 20:00N 54°32' E 018°41'4 8.7
2017-Sep-16 19:30N 54°32' E 018°34'1 2.6
2017-Sep-16 18:58N 54°32' E 018°32'0 0.0
2017-Sep-16 18:28N 54°32' E 018°32'0 0.0
2017-Sep-16 17:58N 54°32' E 018°32'0 0.0
2017-Sep-16 17:28N 54°32' E 018°32'0 0.0
2017-Sep-16 16:58N 54°32' E 018°32'0 0.0
2017-Sep-16 16:28N 54°32' E 018°32'0 0.0
2017-Sep-16 15:58N 54°32' E 018°32'0 0.0
2017-Sep-16 15:28N 54°32' E 018°32'0 0.0
2017-Sep-16 14:58N 54°32' E 018°32'0 0.0
2017-Sep-16 14:28N 54°32' E 018°32'0 0.0
2017-Sep-16 13:58N 54°32' E 018°32'0 0.0
2017-Sep-16 13:28N 54°32' E 018°32'0 0.0
2017-Sep-16 12:58N 54°32' E 018°32'0 0.0
2017-Sep-16 12:28N 54°32' E 018°32'0 0.0
2017-Sep-16 11:58N 54°32' E 018°32'0 0.0
2017-Sep-16 11:28N 54°32' E 018°32'0 0.0
2017-Sep-16 10:58N 54°32' E 018°32'0 0.0
2017-Sep-16 10:28N 54°32' E 018°32'0 0.0
2017-Sep-16 09:58N 54°32' E 018°32'0 0.0
2017-Sep-16 09:28N 54°32' E 018°32'0 0.0
2017-Sep-16 08:58N 54°32' E 018°32'0 0.0
2017-Sep-16 08:28N 54°32' E 018°32'0 0.0
2017-Sep-16 07:58N 54°32' E 018°32'0 0.0
2017-Sep-16 07:28N 54°32' E 018°32'0 0.0
2017-Sep-16 06:58N 54°32' E 018°32'0 0.0
2017-Sep-16 06:28N 54°32' E 018°32'0 0.0
2017-Sep-16 05:58N 54°32' E 018°32'0 0.0
2017-Sep-16 05:28N 54°32' E 018°32'0 0.0
2017-Sep-16 04:58N 54°32' E 018°32'0 0.0
2017-Sep-16 04:28N 54°32' E 018°32'0 0.0
2017-Sep-16 03:58N 54°32' E 018°32'0 0.0
2017-Sep-16 03:28N 54°32' E 018°32'0 0.0
2017-Sep-16 02:58N 54°32' E 018°32'0 0.0
2017-Sep-16 02:28N 54°32' E 018°32'0 0.0
2017-Sep-16 01:58N 54°32' E 018°32'0 0.0
2017-Sep-16 01:28N 54°32' E 018°32'0 0.0
2017-Sep-16 00:58N 54°32' E 018°32'0 0.0
2017-Sep-16 00:28N 54°32' E 018°32'0 0.0
2017-Sep-15 23:58N 54°32' E 018°32'0 0.0
2017-Sep-15 23:28N 54°32' E 018°32'0 0.0
2017-Sep-15 22:58N 54°32' E 018°32'0 0.0
2017-Sep-15 22:28N 54°32' E 018°32'0 0.0
2017-Sep-15 21:58N 54°32' E 018°32'0 0.0
2017-Sep-15 21:28N 54°32' E 018°32'0 0.0
2017-Sep-15 20:58N 54°32' E 018°32'0 0.0
2017-Sep-15 20:28N 54°32' E 018°32'0 0.0
2017-Sep-15 19:58N 54°32' E 018°32'0 0.0
2017-Sep-15 19:28N 54°32' E 018°32'0 0.0
2017-Sep-15 18:55N 54°32' E 018°32'0 0.0
2017-Sep-15 18:28N 54°32' E 018°32'0 0.0
2017-Sep-15 17:58N 54°32' E 018°32'0 0.0
2017-Sep-15 17:28N 54°32' E 018°32'0 0.0
2017-Sep-15 16:58N 54°32' E 018°32'0 0.0
2017-Sep-15 16:28N 54°32' E 018°32'0 0.0
2017-Sep-15 15:58N 54°32' E 018°32'0 0.0
2017-Sep-15 15:28N 54°32' E 018°32'0 0.0
2017-Sep-15 14:58N 54°32' E 018°32'0 0.0
2017-Sep-15 14:28N 54°32' E 018°32'0 0.0
2017-Sep-15 13:58N 54°32' E 018°32'0 0.0
2017-Sep-15 13:28N 54°32' E 018°32'0 0.0
2017-Sep-15 12:58N 54°32' E 018°32'0 0.0
2017-Sep-15 12:28N 54°32' E 018°32'0 0.0
2017-Sep-15 11:58N 54°32' E 018°32'0 0.0
2017-Sep-15 11:28N 54°32' E 018°32'0 0.0
2017-Sep-15 10:58N 54°32' E 018°32'0 0.0
2017-Sep-15 10:28N 54°32' E 018°32'0 0.0
2017-Sep-15 09:58N 54°32' E 018°32'0 0.0
2017-Sep-15 09:25N 54°32' E 018°32'0 0.0
2017-Sep-15 06:50N 54°32' E 018°32'0 0.0
2017-Sep-15 06:29N 54°32' E 018°32'0 0.0
2017-Sep-15 05:59N 54°32' E 018°32'0 0.0
2017-Sep-15 05:29N 54°32' E 018°32'0 0.0
2017-Sep-15 04:59N 54°32' E 018°32'0 0.0
2017-Sep-15 04:29N 54°32' E 018°32'0 0.0
2017-Sep-15 03:59N 54°32' E 018°32'0 0.0
2017-Sep-15 03:29N 54°32' E 018°32'0 0.0
2017-Sep-15 02:59N 54°32' E 018°32'0 0.0
2017-Sep-15 02:29N 54°32' E 018°32'0 0.0
2017-Sep-15 01:59N 54°32' E 018°32'0 0.0
2017-Sep-15 01:29N 54°32' E 018°32'0 0.0
2017-Sep-15 00:59N 54°32' E 018°32'0 0.0
2017-Sep-15 00:29N 54°32' E 018°32'0 0.0
2017-Sep-14 23:59N 54°32' E 018°32'0 0.0
2017-Sep-14 23:29N 54°32' E 018°32'0 0.0
2017-Sep-14 22:59N 54°32' E 018°32'0 0.0
2017-Sep-14 22:29N 54°32' E 018°32'0 0.0
2017-Sep-14 21:59N 54°32' E 018°32'0 0.0
2017-Sep-14 21:29N 54°32' E 018°32'0 0.0
2017-Sep-14 20:59N 54°32' E 018°32'0 0.0
2017-Sep-14 20:29N 54°32' E 018°32'0 0.0
2017-Sep-14 19:59N 54°32' E 018°32'0 0.0
2017-Sep-14 19:29N 54°32' E 018°32'0 0.0
2017-Sep-14 18:59N 54°32' E 018°32'0 0.0
2017-Sep-14 18:29N 54°32' E 018°32'0 0.0
2017-Sep-14 17:59N 54°32' E 018°32'0 0.0
2017-Sep-14 17:29N 54°32' E 018°32'0 0.0
2017-Sep-14 16:59N 54°32' E 018°32'0 0.0
2017-Sep-14 16:29N 54°32' E 018°32'0 0.0
2017-Sep-14 15:59N 54°32' E 018°32'0 0.0
2017-Sep-14 15:29N 54°32' E 018°32'0 0.0
2017-Sep-14 14:59N 54°32' E 018°32'0 0.0
2017-Sep-14 14:29N 54°32' E 018°32'0 0.0
2017-Sep-14 13:59N 54°32' E 018°32'0 0.0
2017-Sep-14 13:29N 54°32' E 018°32'0 0.0
2017-Sep-14 12:59N 54°32' E 018°32'0 0.0
2017-Sep-14 12:29N 54°32' E 018°32'0 0.0
2017-Sep-14 11:59N 54°32' E 018°32'0 0.0
2017-Sep-14 11:29N 54°32' E 018°32'0 0.0
2017-Sep-14 10:59N 54°32' E 018°32'0 0.0
2017-Sep-14 10:31N 54°32' E 018°32'2 4.4
2017-Sep-14 10:01N 54°32' E 018°35'4 8.4
2017-Sep-14 09:30N 54°32' E 018°43'4 8.4
2017-Sep-14 09:01N 54°33' E 018°50'4 9.0
2017-Sep-14 08:31N 54°37' E 018°54'4 8.8
2017-Sep-14 08:01N 54°41' E 018°57'4 8.5
2017-Sep-14 07:30N 54°45' E 018°59'4 7.1
2017-Sep-14 07:01N 54°48' E 018°56'5 9.1
2017-Sep-14 06:30N 54°51' E 018°49'4 8.9
2017-Sep-14 06:01N 54°53' E 018°43'4 8.7
2017-Sep-14 05:31N 54°56' E 018°37'4 8.5
2017-Sep-14 05:00N 54°58' E 018°30'185 8.7
2017-Sep-13 07:47N 54°45' E 013°09'3 9.2
2017-Sep-13 07:30N 54°45' E 013°04'5 9.1
2017-Sep-13 07:01N 54°45' E 012°57'6 8.9
2017-Sep-13 06:17N 54°44' E 012°46'3 9.2
2017-Sep-13 06:01N 54°43' E 012°41'5 9.1
2017-Sep-13 05:31N 54°41' E 012°35'4 8.9
2017-Sep-13 05:01N 54°38' E 012°28'4 8.8
2017-Sep-13 04:31N 54°36' E 012°22'4 8.7
2017-Sep-13 04:01N 54°33' E 012°17'5 9.3
2017-Sep-13 03:31N 54°28' E 012°15'23 8.4
2017-Sep-13 00:49N 54°28' E 011°36'3 9.4
2017-Sep-13 00:31N 54°29' E 011°32'5 9.0
2017-Sep-12 23:56N 54°31' E 011°23'4 9.3
2017-Sep-12 23:31N 54°33' E 011°17'4 8.9
2017-Sep-12 23:01N 54°34' E 011°10'5 9.1
2017-Sep-12 22:30N 54°34' E 011°02'5 9.7
2017-Sep-12 22:01N 54°34' E 010°54'11 9.5
2017-Sep-12 20:48N 54°33' E 010°34'52 6.7
2017-Sep-12 13:01N 54°05' E 009°19'0 6.9
2017-Sep-12 12:59N 54°05' E 009°19'4 6.9
2017-Sep-12 12:27N 54°01' E 009°18'4 8.2
2017-Sep-12 12:00N 53°58' E 009°15'4 8.7
2017-Sep-12 11:30N 53°55' E 009°10'1 1.9
2017-Sep-12 11:00N 53°54' E 009°09'0 0.0
2017-Sep-12 10:30N 53°54' E 009°09'0 0.0
2017-Sep-12 10:00N 53°54' E 009°09'0 0.8
2017-Sep-12 09:30N 53°54' E 009°09'0 0.1
2017-Sep-12 09:00N 53°54' E 009°09'2 3.6
2017-Sep-12 08:30N 53°53' E 009°06'3 5.5
2017-Sep-12 08:00N 53°52' E 009°02'3 6.5
2017-Sep-12 07:31N 53°51' E 008°57'4 7.2
2017-Sep-12 07:00N 53°50' E 008°51'3 6.8
2017-Sep-12 06:30N 53°51' E 008°45'3 7.0
2017-Sep-12 06:00N 53°54' E 008°41'4 7.8
2017-Sep-12 05:30N 53°57' E 008°37'5 7.5
2017-Sep-12 04:51N 53°58' E 008°29'3 7.4
2017-Sep-12 04:28N 53°59' E 008°24'  
Track history (hours):
 
Tides and Currents Weather Stations Pressure Air Temp Water Temp Dewpoint Dewpoint Depression Visibility Wind Speed Wind Dir Waves Ship Positions

Eider

Last reported at 2017-Sep-22 01:56 UTC. Time now 2017-Sep-23 14:50 UTC.
Position N 55°19' E 014°23'.

Length 88 m; draft 4.4 m.

Type: Cargo ship. MMSI: 304469000.

Date/timePositionNaut miles runAvg speedWind from/ knotsBaromVisibWave heightAir tempDewpointWater temp
2017-Sep-22 01:56N 55°19' E 014°23'5 9.9
2017-Sep-22 01:25N 55°23' E 014°29'4 9.8
2017-Sep-22 01:00N 55°26' E 014°33'21 9.7
2017-Sep-21 22:51N 55°37' E 015°05'4 9.7
2017-Sep-21 22:27N 55°38' E 015°11'4 9.8
2017-Sep-21 22:00N 55°41' E 015°17'5 9.8
2017-Sep-21 21:30N 55°43' E 015°25'510.0
2017-Sep-21 21:00N 55°46' E 015°33'510.3
2017-Sep-21 20:30N 55°48' E 015°40'510.3
2017-Sep-21 20:00N 55°51' E 015°48'510.1
2017-Sep-21 19:30N 55°54' E 015°56'5 9.8
2017-Sep-21 19:00N 55°56' E 016°04'510.0
2017-Sep-21 18:30N 55°58' E 016°12'510.1
2017-Sep-21 18:00N 56°00' E 016°20'510.7
2017-Sep-21 17:30N 56°03' E 016°28'510.6
2017-Sep-21 17:00N 56°06' E 016°36'29510.3
2017-Sep-20 12:22N 59°35' E 023°05'410.5
2017-Sep-20 12:00N 59°36' E 023°12'510.1
2017-Sep-20 11:30N 59°38' E 023°22'510.2
2017-Sep-20 11:00N 59°39' E 023°32'510.0
2017-Sep-20 10:30N 59°41' E 023°41'510.0
2017-Sep-20 10:00N 59°42' E 023°51'1410.2
2017-Sep-20 08:37N 59°46' E 024°18'110.2
2017-Sep-20 08:30N 59°46' E 024°20'510.1
2017-Sep-20 08:00N 59°47' E 024°30'5 9.8
2017-Sep-20 07:30N 59°48' E 024°39'5 9.0
2017-Sep-20 07:00N 59°49' E 024°48'5 9.0
2017-Sep-20 06:30N 59°50' E 024°57'40 9.0
2017-Sep-20 02:02N 60°04' E 026°12'0 8.6
2017-Sep-20 02:00N 60°05' E 026°12'5 9.0
2017-Sep-20 01:30N 60°08' E 026°18'4 8.9
2017-Sep-20 01:00N 60°12' E 026°23'4 8.8
2017-Sep-20 00:30N 60°15' E 026°28'510.1
2017-Sep-20 00:00N 60°19' E 026°35'510.0
2017-Sep-19 23:30N 60°22' E 026°43'5 9.8
2017-Sep-19 23:00N 60°22' E 026°53'5 9.9
2017-Sep-19 22:30N 60°21' E 027°03'5 9.3
2017-Sep-19 22:00N 60°25' E 027°09'5 9.7
2017-Sep-19 21:30N 60°30' E 027°09'2 0.1
2017-Sep-19 05:55N 60°32' E 027°10'3 6.4
2017-Sep-19 05:30N 60°29' E 027°08'5 9.5
2017-Sep-19 05:00N 60°24' E 027°08'5 9.0
2017-Sep-19 04:30N 60°21' E 027°02'510.2
2017-Sep-19 04:00N 60°22' E 026°52'5 9.7
2017-Sep-19 03:30N 60°22' E 026°42'5 9.6
2017-Sep-19 03:00N 60°19' E 026°35'5 9.6
2017-Sep-19 02:30N 60°16' E 026°27'4 7.8
2017-Sep-19 02:00N 60°12' E 026°23'4 7.7
2017-Sep-19 01:30N 60°09' E 026°20'4 7.8
2017-Sep-19 01:00N 60°05' E 026°16'42 7.2
2017-Sep-18 19:12N 59°47' E 024°60'1 7.3
2017-Sep-18 19:00N 59°47' E 024°57'4 7.8
2017-Sep-18 18:30N 59°46' E 024°50'4 7.7
2017-Sep-18 18:00N 59°45' E 024°42'4 7.8
2017-Sep-18 17:30N 59°44' E 024°35'4 7.9
2017-Sep-18 17:00N 59°43' E 024°27'4 7.9
2017-Sep-18 16:30N 59°42' E 024°19'14 7.9
2017-Sep-18 14:43N 59°38' E 023°53'7 7.7
2017-Sep-18 13:46N 59°36' E 023°39'2 7.9
2017-Sep-18 13:30N 59°35' E 023°35'4 8.0
2017-Sep-18 13:00N 59°34' E 023°27'299 8.3
2017-Sep-17 00:57N 55°09' E 019°14'4 8.8
2017-Sep-17 00:30N 55°05' E 019°11'4 8.9
2017-Sep-17 00:00N 55°01' E 019°08'4 8.9
2017-Sep-16 23:30N 54°57' E 019°06'5 9.0
2017-Sep-16 22:59N 54°52' E 019°03'4 9.0
2017-Sep-16 22:30N 54°48' E 019°01'4 9.0
2017-Sep-16 22:00N 54°44' E 018°59'4 8.4
2017-Sep-16 21:31N 54°40' E 018°57'4 8.7
2017-Sep-16 21:00N 54°36' E 018°54'5 9.2
2017-Sep-16 20:30N 54°32' E 018°49'4 8.9
2017-Sep-16 20:00N 54°32' E 018°41'4 8.7
2017-Sep-16 19:30N 54°32' E 018°34'1 2.6
2017-Sep-16 18:58N 54°32' E 018°32'0 0.0
2017-Sep-16 18:28N 54°32' E 018°32'0 0.0
2017-Sep-16 17:58N 54°32' E 018°32'0 0.0
2017-Sep-16 17:28N 54°32' E 018°32'0 0.0
2017-Sep-16 16:58N 54°32' E 018°32'0 0.0
2017-Sep-16 16:28N 54°32' E 018°32'0 0.0
2017-Sep-16 15:58N 54°32' E 018°32'0 0.0
2017-Sep-16 15:28N 54°32' E 018°32'0 0.0
2017-Sep-16 14:58N 54°32' E 018°32'0 0.0
2017-Sep-16 14:28N 54°32' E 018°32'0 0.0
2017-Sep-16 13:58N 54°32' E 018°32'0 0.0
2017-Sep-16 13:28N 54°32' E 018°32'0 0.0
2017-Sep-16 12:58N 54°32' E 018°32'0 0.0
2017-Sep-16 12:28N 54°32' E 018°32'0 0.0
2017-Sep-16 11:58N 54°32' E 018°32'0 0.0
2017-Sep-16 11:28N 54°32' E 018°32'0 0.0
2017-Sep-16 10:58N 54°32' E 018°32'0 0.0
2017-Sep-16 10:28N 54°32' E 018°32'0 0.0
2017-Sep-16 09:58N 54°32' E 018°32'0 0.0
2017-Sep-16 09:28N 54°32' E 018°32'0 0.0
2017-Sep-16 08:58N 54°32' E 018°32'0 0.0
2017-Sep-16 08:28N 54°32' E 018°32'0 0.0
2017-Sep-16 07:58N 54°32' E 018°32'0 0.0
2017-Sep-16 07:28N 54°32' E 018°32'0 0.0
2017-Sep-16 06:58N 54°32' E 018°32'0 0.0
2017-Sep-16 06:28N 54°32' E 018°32'0 0.0
2017-Sep-16 05:58N 54°32' E 018°32'0 0.0
2017-Sep-16 05:28N 54°32' E 018°32'0 0.0
2017-Sep-16 04:58N 54°32' E 018°32'0 0.0
2017-Sep-16 04:28N 54°32' E 018°32'0 0.0
2017-Sep-16 03:58N 54°32' E 018°32'0 0.0
2017-Sep-16 03:28N 54°32' E 018°32'0 0.0
2017-Sep-16 02:58N 54°32' E 018°32'0 0.0
2017-Sep-16 02:28N 54°32' E 018°32'0 0.0
2017-Sep-16 01:58N 54°32' E 018°32'0 0.0
2017-Sep-16 01:28N 54°32' E 018°32'0 0.0
2017-Sep-16 00:58N 54°32' E 018°32'0 0.0
2017-Sep-16 00:28N 54°32' E 018°32'0 0.0
2017-Sep-15 23:58N 54°32' E 018°32'0 0.0
2017-Sep-15 23:28N 54°32' E 018°32'0 0.0
2017-Sep-15 22:58N 54°32' E 018°32'0 0.0
2017-Sep-15 22:28N 54°32' E 018°32'0 0.0
2017-Sep-15 21:58N 54°32' E 018°32'0 0.0
2017-Sep-15 21:28N 54°32' E 018°32'0 0.0
2017-Sep-15 20:58N 54°32' E 018°32'0 0.0
2017-Sep-15 20:28N 54°32' E 018°32'0 0.0
2017-Sep-15 19:58N 54°32' E 018°32'0 0.0
2017-Sep-15 19:28N 54°32' E 018°32'0 0.0
2017-Sep-15 18:55N 54°32' E 018°32'0 0.0
2017-Sep-15 18:28N 54°32' E 018°32'0 0.0
2017-Sep-15 17:58N 54°32' E 018°32'0 0.0
2017-Sep-15 17:28N 54°32' E 018°32'0 0.0
2017-Sep-15 16:58N 54°32' E 018°32'0 0.0
2017-Sep-15 16:28N 54°32' E 018°32'0 0.0
2017-Sep-15 15:58N 54°32' E 018°32'0 0.0
2017-Sep-15 15:28N 54°32' E 018°32'0 0.0
2017-Sep-15 14:58N 54°32' E 018°32'0 0.0
2017-Sep-15 14:28N 54°32' E 018°32'0 0.0
2017-Sep-15 13:58N 54°32' E 018°32'0 0.0
2017-Sep-15 13:28N 54°32' E 018°32'0 0.0
2017-Sep-15 12:58N 54°32' E 018°32'0 0.0
2017-Sep-15 12:28N 54°32' E 018°32'0 0.0
2017-Sep-15 11:58N 54°32' E 018°32'0 0.0
2017-Sep-15 11:28N 54°32' E 018°32'0 0.0
2017-Sep-15 10:58N 54°32' E 018°32'0 0.0
2017-Sep-15 10:28N 54°32' E 018°32'0 0.0
2017-Sep-15 09:58N 54°32' E 018°32'0 0.0
2017-Sep-15 09:25N 54°32' E 018°32'0 0.0
2017-Sep-15 06:50N 54°32' E 018°32'0 0.0
2017-Sep-15 06:29N 54°32' E 018°32'0 0.0
2017-Sep-15 05:59N 54°32' E 018°32'0 0.0
2017-Sep-15 05:29N 54°32' E 018°32'0 0.0
2017-Sep-15 04:59N 54°32' E 018°32'0 0.0
2017-Sep-15 04:29N 54°32' E 018°32'0 0.0
2017-Sep-15 03:59N 54°32' E 018°32'0 0.0
2017-Sep-15 03:29N 54°32' E 018°32'0 0.0
2017-Sep-15 02:59N 54°32' E 018°32'0 0.0
2017-Sep-15 02:29N 54°32' E 018°32'0 0.0
2017-Sep-15 01:59N 54°32' E 018°32'0 0.0
2017-Sep-15 01:29N 54°32' E 018°32'0 0.0
2017-Sep-15 00:59N 54°32' E 018°32'0 0.0
2017-Sep-15 00:29N 54°32' E 018°32'0 0.0
2017-Sep-14 23:59N 54°32' E 018°32'0 0.0
2017-Sep-14 23:29N 54°32' E 018°32'0 0.0
2017-Sep-14 22:59N 54°32' E 018°32'0 0.0
2017-Sep-14 22:29N 54°32' E 018°32'0 0.0
2017-Sep-14 21:59N 54°32' E 018°32'0 0.0
2017-Sep-14 21:29N 54°32' E 018°32'0 0.0
2017-Sep-14 20:59N 54°32' E 018°32'0 0.0
2017-Sep-14 20:29N 54°32' E 018°32'0 0.0
2017-Sep-14 19:59N 54°32' E 018°32'0 0.0
2017-Sep-14 19:29N 54°32' E 018°32'0 0.0
2017-Sep-14 18:59N 54°32' E 018°32'0 0.0
2017-Sep-14 18:29N 54°32' E 018°32'0 0.0
2017-Sep-14 17:59N 54°32' E 018°32'0 0.0
2017-Sep-14 17:29N 54°32' E 018°32'0 0.0
2017-Sep-14 16:59N 54°32' E 018°32'0 0.0
2017-Sep-14 16:29N 54°32' E 018°32'0 0.0
2017-Sep-14 15:59N 54°32' E 018°32'0 0.0
2017-Sep-14 15:29N 54°32' E 018°32'0 0.0
2017-Sep-14 14:59N 54°32' E 018°32'0 0.0
2017-Sep-14 14:29N 54°32' E 018°32'0 0.0
2017-Sep-14 13:59N 54°32' E 018°32'0 0.0
2017-Sep-14 13:29N 54°32' E 018°32'0 0.0
2017-Sep-14 12:59N 54°32' E 018°32'0 0.0
2017-Sep-14 12:29N 54°32' E 018°32'0 0.0
2017-Sep-14 11:59N 54°32' E 018°32'0 0.0
2017-Sep-14 11:29N 54°32' E 018°32'0 0.0
2017-Sep-14 10:59N 54°32' E 018°32'0 0.0
2017-Sep-14 10:31N 54°32' E 018°32'2 4.4
2017-Sep-14 10:01N 54°32' E 018°35'4 8.4
2017-Sep-14 09:30N 54°32' E 018°43'4 8.4
2017-Sep-14 09:01N 54°33' E 018°50'4 9.0
2017-Sep-14 08:31N 54°37' E 018°54'4 8.8
2017-Sep-14 08:01N 54°41' E 018°57'4 8.5
2017-Sep-14 07:30N 54°45' E 018°59'4 7.1
2017-Sep-14 07:01N 54°48' E 018°56'5 9.1
2017-Sep-14 06:30N 54°51' E 018°49'4 8.9
2017-Sep-14 06:01N 54°53' E 018°43'4 8.7
2017-Sep-14 05:31N 54°56' E 018°37'4 8.5
2017-Sep-14 05:00N 54°58' E 018°30'185 8.7
2017-Sep-13 07:47N 54°45' E 013°09'3 9.2
2017-Sep-13 07:30N 54°45' E 013°04'5 9.1
2017-Sep-13 07:01N 54°45' E 012°57'6 8.9
2017-Sep-13 06:17N 54°44' E 012°46'3 9.2
2017-Sep-13 06:01N 54°43' E 012°41'5 9.1
2017-Sep-13 05:31N 54°41' E 012°35'4 8.9
2017-Sep-13 05:01N 54°38' E 012°28'4 8.8
2017-Sep-13 04:31N 54°36' E 012°22'4 8.7
2017-Sep-13 04:01N 54°33' E 012°17'5 9.3
2017-Sep-13 03:31N 54°28' E 012°15'23 8.4
2017-Sep-13 00:49N 54°28' E 011°36'3 9.4
2017-Sep-13 00:31N 54°29' E 011°32'5 9.0
2017-Sep-12 23:56N 54°31' E 011°23'4 9.3
2017-Sep-12 23:31N 54°33' E 011°17'4 8.9
2017-Sep-12 23:01N 54°34' E 011°10'5 9.1
2017-Sep-12 22:30N 54°34' E 011°02'5 9.7
2017-Sep-12 22:01N 54°34' E 010°54'11 9.5
2017-Sep-12 20:48N 54°33' E 010°34'52 6.7
2017-Sep-12 13:01N 54°05' E 009°19'0 6.9
2017-Sep-12 12:59N 54°05' E 009°19'4 6.9
2017-Sep-12 12:27N 54°01' E 009°18'4 8.2
2017-Sep-12 12:00N 53°58' E 009°15'4 8.7
2017-Sep-12 11:30N 53°55' E 009°10'1 1.9
2017-Sep-12 11:00N 53°54' E 009°09'0 0.0
2017-Sep-12 10:30N 53°54' E 009°09'0 0.0
2017-Sep-12 10:00N 53°54' E 009°09'0 0.8
2017-Sep-12 09:30N 53°54' E 009°09'0 0.1
2017-Sep-12 09:00N 53°54' E 009°09'2 3.6
2017-Sep-12 08:30N 53°53' E 009°06'3 5.5
2017-Sep-12 08:00N 53°52' E 009°02'3 6.5
2017-Sep-12 07:31N 53°51' E 008°57'4 7.2
2017-Sep-12 07:00N 53°50' E 008°51'3 6.8
2017-Sep-12 06:30N 53°51' E 008°45'3 7.0
2017-Sep-12 06:00N 53°54' E 008°41'4 7.8
2017-Sep-12 05:30N 53°57' E 008°37'5 7.5
2017-Sep-12 04:51N 53°58' E 008°29'3 7.4
2017-Sep-12 04:28N 53°59' E 008°24'  

Dump ship's entire track history